createdAt,value
2019-03-30T00:00:01.242Z,7.40
2019-03-30T00:02:35.773Z,7.40
2019-03-30T00:05:08.492Z,7.30
2019-03-30T00:07:40.746Z,7.30
2019-03-30T00:10:12.106Z,7.30
2019-03-30T00:12:45.022Z,7.20
2019-03-30T00:15:16.297Z,7.20
2019-03-30T00:17:51.424Z,7.10
2019-03-30T00:20:23.176Z,7.10
2019-03-30T00:22:54.489Z,7.10
2019-03-30T00:25:25.866Z,7.00
2019-03-30T00:27:58.181Z,7.00
2019-03-30T00:30:31.759Z,7.00
2019-03-30T00:33:03.098Z,6.90
2019-03-30T00:35:35.978Z,6.90
2019-03-30T00:38:07.225Z,6.80
2019-03-30T00:40:38.495Z,6.80
2019-03-30T00:43:12.176Z,6.80
2019-03-30T00:45:47.650Z,6.80
2019-03-30T00:48:18.929Z,6.80
2019-03-30T00:50:50.353Z,6.80
2019-03-30T00:53:21.644Z,6.80
2019-03-30T00:55:54.227Z,6.70
2019-03-30T00:58:25.732Z,6.80
2019-03-30T01:00:59.443Z,6.80
2019-03-30T01:03:32.361Z,6.90
2019-03-30T01:06:03.797Z,6.90
2019-03-30T01:08:35.033Z,6.80
2019-03-30T01:11:06.353Z,6.70
2019-03-30T01:13:37.734Z,6.70
2019-03-30T01:16:11.127Z,6.70
2019-03-30T01:18:47.566Z,6.70
2019-03-30T01:21:18.954Z,6.70
2019-03-30T01:23:50.891Z,6.70
2019-03-30T01:26:22.238Z,6.70
2019-03-30T01:28:58.207Z,6.80
2019-03-30T01:31:30.802Z,6.80
2019-03-30T01:34:02.121Z,6.90
2019-03-30T01:36:35.484Z,6.80
2019-03-30T01:39:10.494Z,6.80
2019-03-30T01:41:41.925Z,6.90
2019-03-30T01:44:13.304Z,6.80
2019-03-30T01:46:44.606Z,6.80
2019-03-30T01:49:15.851Z,6.80
2019-03-30T02:10:51.719Z,6.60
2019-03-30T02:13:23.084Z,6.60
2019-03-30T02:15:54.546Z,6.60
2019-03-30T02:18:25.929Z,6.60
2019-03-30T02:20:57.363Z,6.60
2019-03-30T02:23:34.074Z,6.60
2019-03-30T02:26:10.335Z,6.50
2019-03-30T02:28:41.690Z,6.50
2019-03-30T02:31:13.167Z,6.50
2019-03-30T02:33:44.668Z,6.50
2019-03-30T02:36:15.967Z,6.50
2019-03-30T02:38:49.670Z,6.50
2019-03-30T02:41:24.533Z,6.50
2019-03-30T02:43:56.005Z,6.50
2019-03-30T02:46:27.406Z,6.50
2019-03-30T02:48:58.817Z,6.40
2019-03-30T02:51:35.619Z,6.40
2019-03-30T02:54:15.740Z,6.40
2019-03-30T02:57:02.247Z,6.40
2019-03-30T02:59:35.049Z,6.50
2019-03-30T03:02:06.474Z,6.50
2019-03-30T03:04:37.949Z,6.60
2019-03-30T03:07:12.180Z,6.60
2019-03-30T03:09:52.099Z,6.60
2019-03-30T03:12:23.590Z,6.60
2019-03-30T03:14:55.099Z,6.50
2019-03-30T03:17:28.668Z,6.40
2019-03-30T03:20:00.486Z,6.40
2019-03-30T03:22:32.947Z,6.40
2019-03-30T03:25:04.415Z,6.30
2019-03-30T03:27:45.677Z,6.30
2019-03-30T03:30:21.533Z,6.30
2019-03-30T03:32:52.928Z,6.30
2019-03-30T03:35:34.976Z,6.20
2019-03-30T03:38:24.490Z,6.20
2019-03-30T03:40:57.258Z,6.20
2019-03-30T03:43:31.929Z,6.20
2019-03-30T03:46:03.382Z,6.10
2019-03-30T03:48:34.569Z,6.10
2019-03-30T03:51:24.514Z,6.10
2019-03-30T03:53:48.673Z,6.10
2019-03-30T03:56:22.343Z,6.20
2019-03-30T03:58:56.623Z,6.10
2019-03-30T04:01:31.772Z,6.10
2019-03-30T04:04:05.677Z,6.10
2019-03-30T04:06:44.735Z,6.10
2019-03-30T04:09:18.406Z,6.10
2019-03-30T04:11:58.502Z,6.10
2019-03-30T04:14:31.620Z,6.20
2019-03-30T04:17:03.076Z,6.30
2019-03-30T04:19:36.170Z,6.30
2019-03-30T04:22:15.593Z,6.30
2019-03-30T04:24:50.866Z,6.20
2019-03-30T04:27:24.064Z,6.20
2019-03-30T04:29:55.431Z,6.20
2019-03-30T04:32:26.872Z,6.30
2019-03-30T04:34:58.339Z,6.30
2019-03-30T04:37:39.186Z,6.40
2019-03-30T04:40:14.633Z,6.50
2019-03-30T04:42:46.006Z,6.50
2019-03-30T04:45:17.321Z,6.60
2019-03-30T04:47:48.767Z,6.60
2019-03-30T04:50:21.707Z,6.60
2019-03-30T04:52:54.049Z,6.60
2019-03-30T04:55:29.182Z,6.60
2019-03-30T04:58:01.765Z,6.70
2019-03-30T05:00:33.089Z,6.60
2019-03-30T05:03:04.504Z,6.60
2019-03-30T05:05:43.420Z,6.50
2019-03-30T05:08:26.597Z,6.40
2019-03-30T05:11:03.629Z,6.40
2019-03-30T05:13:34.941Z,6.40
2019-03-30T05:16:06.262Z,6.40
2019-03-30T05:18:37.594Z,6.40
2019-03-30T05:21:10.708Z,6.40
2019-03-30T05:23:47.737Z,6.50
2019-03-30T05:26:23.621Z,6.60
2019-03-30T05:28:55.030Z,6.50
2019-03-30T05:31:26.323Z,6.50
2019-03-30T05:34:04.772Z,6.50
2019-03-30T05:36:38.655Z,6.50
2019-03-30T05:39:12.271Z,6.50
2019-03-30T05:41:43.705Z,6.50
2019-03-30T05:44:17.246Z,6.60
2019-03-30T05:46:48.597Z,6.70
2019-03-30T05:49:32.494Z,6.70
2019-03-30T05:52:27.032Z,6.90
2019-03-30T05:55:00.484Z,6.90
2019-03-30T05:57:31.882Z,7.00
2019-03-30T06:00:03.384Z,7.10
2019-03-30T06:02:34.882Z,7.30
2019-03-30T06:05:20.307Z,7.40
2019-03-30T06:07:54.704Z,7.50
2019-03-30T06:10:26.214Z,7.70
2019-03-30T06:12:57.527Z,7.80
2019-03-30T06:15:29.774Z,8.00
2019-03-30T06:18:01.209Z,8.10
2019-03-30T06:20:37.076Z,8.20
2019-03-30T06:23:09.951Z,8.30
2019-03-30T06:25:42.282Z,8.40
2019-03-30T06:28:13.629Z,8.50
2019-03-30T06:30:45.002Z,8.60
2019-03-30T06:33:16.452Z,8.70
2019-03-30T06:36:03.855Z,8.80
2019-03-30T06:38:45.365Z,8.90
2019-03-30T06:41:18.652Z,9.10
2019-03-30T06:43:50.022Z,9.10
2019-03-30T06:46:21.332Z,9.20
2019-03-30T06:48:58.825Z,9.30
2019-03-30T06:51:43.604Z,9.40
2019-03-30T06:54:24.538Z,9.50
2019-03-30T06:56:56.076Z,9.60
2019-03-30T06:59:27.537Z,9.60
2019-03-30T07:01:58.911Z,9.70
2019-03-30T07:04:31.799Z,9.80
2019-03-30T07:07:08.196Z,9.90
2019-03-30T07:09:41.267Z,10.10
2019-03-30T07:12:13.515Z,10.20
2019-03-30T07:14:50.886Z,10.40
2019-03-30T07:17:28.662Z,10.50
2019-03-30T07:20:02.109Z,10.70
2019-03-30T07:22:40.336Z,11.00
2019-03-30T07:25:10.236Z,11.20
2019-03-30T07:27:43.990Z,11.30
2019-03-30T07:30:18.448Z,11.60
2019-03-30T07:32:49.841Z,11.90
2019-03-30T07:35:22.507Z,12.20
2019-03-30T07:37:53.824Z,12.60
2019-03-30T07:40:25.159Z,12.90
2019-03-30T07:42:56.558Z,13.20
2019-03-30T07:45:30.642Z,13.00
2019-03-30T07:48:01.955Z,13.20
2019-03-30T07:50:33.306Z,13.10
2019-03-30T07:53:04.677Z,13.30
2019-03-30T07:55:35.991Z,13.50
2019-03-30T07:58:07.463Z,13.60
2019-03-30T08:00:38.799Z,13.90
2019-03-30T08:03:10.073Z,14.20
2019-03-30T08:06:11.009Z,14.10
2019-03-30T08:08:42.354Z,14.00
2019-03-30T08:11:27.731Z,14.20
2019-03-30T08:13:58.986Z,14.10
2019-03-30T08:16:39.506Z,13.70
2019-03-30T08:19:10.895Z,13.50
2019-03-30T08:21:42.245Z,13.30
2019-03-30T08:24:13.559Z,13.30
2019-03-30T08:26:47.194Z,13.20
2019-03-30T08:29:18.568Z,13.20
2019-03-30T08:31:50.999Z,13.40
2019-03-30T08:34:22.270Z,13.50
2019-03-30T08:36:53.697Z,13.70
2019-03-30T08:39:28.994Z,14.10
2019-03-30T08:42:02.060Z,14.40
2019-03-30T08:44:33.441Z,14.50
2019-03-30T08:47:06.366Z,14.50
2019-03-30T08:49:37.759Z,15.00
2019-03-30T08:52:09.367Z,15.10
2019-03-30T08:54:43.099Z,15.50
2019-03-30T08:57:14.595Z,15.20
2019-03-30T08:59:55.981Z,15.00
2019-03-30T09:02:27.390Z,15.10
2019-03-30T09:05:01.978Z,15.50
2019-03-30T09:07:34.895Z,15.70
2019-03-30T09:10:07.887Z,15.90
2019-03-30T09:12:39.588Z,16.00
2019-03-30T09:15:11.030Z,16.20
2019-03-30T09:17:51.790Z,16.50
2019-03-30T09:20:23.113Z,16.30
2019-03-30T09:22:54.545Z,16.00
2019-03-30T09:25:25.900Z,16.20
2019-03-30T09:27:57.476Z,16.50
2019-03-30T09:30:28.981Z,16.30
2019-03-30T09:33:00.465Z,16.20
2019-03-30T09:35:31.994Z,16.20
2019-03-30T09:38:03.357Z,16.50
2019-03-30T09:40:34.719Z,16.80
2019-03-30T09:43:06.085Z,17.00
2019-03-30T09:45:37.490Z,17.00
2019-03-30T09:48:09.051Z,17.00
2019-03-30T09:50:40.503Z,17.10
2019-03-30T09:53:11.943Z,17.20
2019-03-30T09:55:43.362Z,17.50
2019-03-30T09:58:14.950Z,17.70
2019-03-30T10:00:46.445Z,18.00
2019-03-30T10:03:24.006Z,17.60
2019-03-30T10:06:01.024Z,17.90
2019-03-30T10:08:32.539Z,18.00
2019-03-30T10:11:05.092Z,18.10
2019-03-30T10:13:36.421Z,18.00
2019-03-30T10:16:09.454Z,17.90
2019-03-30T10:18:44.348Z,18.00
2019-03-30T10:21:20.209Z,18.30
2019-03-30T10:24:05.774Z,18.30
2019-03-30T10:26:43.056Z,18.30
2019-03-30T10:29:20.826Z,18.60
2019-03-30T10:31:59.875Z,19.00
2019-03-30T10:34:39.487Z,19.20
2019-03-30T10:37:15.363Z,19.00
2019-03-30T10:39:48.947Z,19.00
2019-03-30T10:42:26.929Z,19.20
2019-03-30T10:44:59.991Z,19.00
2019-03-30T10:47:31.498Z,18.80
2019-03-30T10:50:04.321Z,18.90
2019-03-30T10:52:39.609Z,18.80
2019-03-30T10:55:13.904Z,19.10
2019-03-30T10:57:45.354Z,19.30
2019-03-30T11:00:42.346Z,19.60
2019-03-30T11:03:14.864Z,19.30
2019-03-30T11:06:00.404Z,19.50
2019-03-30T11:08:32.170Z,19.90
2019-03-30T11:11:06.552Z,20.10
2019-03-30T11:13:40.469Z,19.90
2019-03-30T11:16:44.186Z,19.70
2019-03-30T11:19:44.913Z,19.90
2019-03-30T11:22:19.213Z,19.70
2019-03-30T11:24:50.710Z,19.60
2019-03-30T11:27:22.030Z,19.30
2019-03-30T11:29:53.436Z,19.80
2019-03-30T11:32:25.276Z,20.10
2019-03-30T11:34:56.698Z,20.20
2019-03-30T11:37:28.049Z,20.20
2019-03-30T11:39:59.350Z,20.10
2019-03-30T11:42:30.694Z,20.40
2019-03-30T11:45:03.614Z,20.70
2019-03-30T11:47:44.997Z,20.40
2019-03-30T11:50:17.472Z,20.50
2019-03-30T11:52:48.859Z,20.40
2019-03-30T11:55:22.010Z,20.30
2019-03-30T11:57:53.142Z,20.40
2019-03-30T12:00:24.819Z,20.50
2019-03-30T12:02:56.161Z,21.00
2019-03-30T12:05:27.437Z,22.00
2019-03-30T12:07:58.970Z,22.90
2019-03-30T12:10:30.339Z,22.80
2019-03-30T12:13:02.732Z,22.90
2019-03-30T12:15:34.122Z,23.80
2019-03-30T12:18:05.484Z,24.20
2019-03-30T12:20:36.890Z,24.00
2019-03-30T12:23:08.122Z,24.40
2019-03-30T12:25:39.447Z,24.80
2019-03-30T12:28:10.811Z,24.60
2019-03-30T12:30:42.196Z,24.40
2019-03-30T12:33:13.555Z,25.00
2019-03-30T12:35:44.939Z,24.90
2019-03-30T12:38:16.261Z,24.30
2019-03-30T12:40:48.630Z,24.60
2019-03-30T12:43:19.964Z,24.70
2019-03-30T12:45:51.339Z,24.90
2019-03-30T12:48:22.679Z,26.10
2019-03-30T12:50:54.073Z,26.70
2019-03-30T12:53:25.437Z,26.40
2019-03-30T12:55:56.721Z,26.20
2019-03-30T12:58:28.048Z,26.10
2019-03-30T13:00:59.653Z,26.90
2019-03-30T13:03:30.962Z,26.10
2019-03-30T13:06:02.271Z,24.70
2019-03-30T13:08:33.580Z,23.20
2019-03-30T13:11:05.002Z,24.00
2019-03-30T13:13:36.405Z,25.60
2019-03-30T13:16:07.803Z,26.80
2019-03-30T13:18:39.085Z,26.40
2019-03-30T13:21:10.385Z,25.90
2019-03-30T13:23:41.748Z,26.70
2019-03-30T13:26:12.987Z,27.50
2019-03-30T13:28:44.353Z,27.20
2019-03-30T13:31:15.749Z,26.70
2019-03-30T13:33:48.614Z,25.90
2019-03-30T13:36:36.830Z,24.30
2019-03-30T13:39:09.053Z,23.90
2019-03-30T13:41:40.500Z,24.40
2019-03-30T13:44:11.926Z,24.40
2019-03-30T13:46:43.384Z,25.00
2019-03-30T13:49:19.058Z,25.90
2019-03-30T13:51:51.270Z,26.80
2019-03-30T13:54:22.601Z,26.50
2019-03-30T13:56:53.948Z,25.40
2019-03-30T13:59:25.417Z,24.80
2019-03-30T14:01:59.062Z,24.10
2019-03-30T14:04:31.614Z,22.30
2019-03-30T14:07:02.951Z,21.00
2019-03-30T14:09:34.226Z,20.20
2019-03-30T14:12:06.132Z,19.70
2019-03-30T14:14:39.742Z,19.40
2019-03-30T14:17:11.166Z,19.20
2019-03-30T14:19:42.625Z,19.10
2019-03-30T14:22:14.034Z,19.00
2019-03-30T14:24:45.461Z,19.00
2019-03-30T14:27:18.524Z,19.10
2019-03-30T14:29:49.977Z,19.20
2019-03-30T14:32:21.329Z,19.40
2019-03-30T14:34:52.698Z,19.70
2019-03-30T14:37:24.067Z,20.10
2019-03-30T14:39:57.133Z,19.90
2019-03-30T14:42:29.704Z,19.70
2019-03-30T14:45:01.114Z,20.50
2019-03-30T14:47:35.000Z,20.60
2019-03-30T14:50:10.143Z,20.20
2019-03-30T14:52:43.779Z,19.90
2019-03-30T14:55:15.395Z,19.60
2019-03-30T14:57:46.921Z,19.50
2019-03-30T15:00:18.807Z,19.50
2019-03-30T15:02:54.439Z,19.40
2019-03-30T15:05:26.139Z,19.20
2019-03-30T15:07:57.592Z,18.90
2019-03-30T15:10:39.075Z,18.80
2019-03-30T15:13:10.405Z,18.80
2019-03-30T15:15:41.897Z,18.70
2019-03-30T15:18:13.333Z,18.90
2019-03-30T15:20:45.098Z,19.00
2019-03-30T15:23:16.893Z,18.80
2019-03-30T15:25:48.274Z,18.70
2019-03-30T15:28:19.645Z,18.40
2019-03-30T15:30:51.098Z,18.30
2019-03-30T15:33:22.462Z,18.20
2019-03-30T15:35:53.793Z,18.30
2019-03-30T15:38:27.107Z,18.60
2019-03-30T15:41:01.403Z,18.50
2019-03-30T15:43:38.408Z,18.40
2019-03-30T15:46:07.429Z,18.30
2019-03-30T15:48:38.743Z,18.30
2019-03-30T15:51:10.106Z,18.10
2019-03-30T15:53:43.773Z,18.00
2019-03-30T15:56:15.261Z,18.00
2019-03-30T15:58:48.210Z,17.80
2019-03-30T16:01:19.525Z,17.70
2019-03-30T16:03:50.825Z,17.60
2019-03-30T16:06:22.166Z,17.60
2019-03-30T16:08:53.490Z,17.60
2019-03-30T16:11:24.897Z,17.60
2019-03-30T16:13:56.282Z,17.70
2019-03-30T16:16:27.682Z,18.10
2019-03-30T16:19:45.724Z,18.70
2019-03-30T16:22:17.622Z,19.20
2019-03-30T16:24:49.025Z,19.50
2019-03-30T16:27:28.715Z,19.60
2019-03-30T16:29:58.435Z,19.60
2019-03-30T16:32:28.718Z,19.80
2019-03-30T16:35:00.111Z,19.80
2019-03-30T16:37:33.391Z,19.80
2019-03-30T16:40:05.341Z,19.80
2019-03-30T16:42:39.429Z,19.60
2019-03-30T16:45:10.783Z,19.20
2019-03-30T16:47:42.110Z,18.90
2019-03-30T16:50:13.734Z,18.40
2019-03-30T16:52:45.105Z,17.90
2019-03-30T16:55:16.466Z,17.50
2019-03-30T16:57:47.818Z,17.30
2019-03-30T17:00:19.424Z,17.10
2019-03-30T17:02:50.813Z,17.00
2019-03-30T17:05:22.166Z,16.80
2019-03-30T17:07:53.404Z,16.60
2019-03-30T17:10:25.170Z,16.60
2019-03-30T17:12:56.580Z,16.50
2019-03-30T17:15:28.039Z,16.30
2019-03-30T17:17:59.494Z,16.20
2019-03-30T17:20:30.873Z,16.10
2019-03-30T17:23:02.355Z,16.00
2019-03-30T17:25:33.756Z,15.80
2019-03-30T17:28:07.064Z,15.70
2019-03-30T17:30:39.630Z,15.60
2019-03-30T17:33:11.058Z,15.50
2019-03-30T17:35:42.535Z,15.40
2019-03-30T17:38:13.869Z,15.30
2019-03-30T17:40:45.219Z,15.10
2019-03-30T17:43:16.458Z,15.00
2019-03-30T17:45:49.402Z,14.90
2019-03-30T17:48:21.602Z,14.90
2019-03-30T17:50:57.992Z,14.80
2019-03-30T17:53:27.662Z,14.70
2019-03-30T17:56:01.914Z,14.50
2019-03-30T17:58:32.122Z,14.40
2019-03-30T18:01:03.468Z,14.40
2019-03-30T18:03:34.764Z,14.30
2019-03-30T18:06:06.305Z,14.20
2019-03-30T18:08:37.638Z,14.10
2019-03-30T18:11:08.943Z,14.00
2019-03-30T18:13:41.386Z,13.80
2019-03-30T18:16:12.766Z,13.70
2019-03-30T18:18:44.171Z,13.60
2019-03-30T18:21:18.272Z,13.50
2019-03-30T18:23:49.558Z,13.50
2019-03-30T18:26:20.926Z,13.40
2019-03-30T18:28:54.382Z,13.30
2019-03-30T18:31:25.351Z,13.20
2019-03-30T18:33:58.464Z,13.10
2019-03-30T18:36:31.131Z,13.00
2019-03-30T18:39:09.688Z,13.00
2019-03-30T18:41:38.507Z,12.90
2019-03-30T18:44:10.006Z,12.80
2019-03-30T18:46:42.501Z,12.80
2019-03-30T18:49:13.781Z,12.70
2019-03-30T18:51:46.544Z,12.60
2019-03-30T18:54:18.245Z,12.60
2019-03-30T18:56:49.686Z,12.50
2019-03-30T18:59:21.018Z,12.40
2019-03-30T19:01:52.476Z,12.40
2019-03-30T19:04:23.830Z,12.30
2019-03-30T19:06:55.300Z,12.30
2019-03-30T19:09:26.755Z,12.20
2019-03-30T19:11:59.695Z,12.20
2019-03-30T19:14:31.059Z,12.10
2019-03-30T19:17:02.415Z,12.10
2019-03-30T19:19:37.729Z,12.00
2019-03-30T19:22:09.471Z,12.00
2019-03-30T19:24:40.860Z,12.00
2019-03-30T19:27:12.344Z,11.90
2019-03-30T19:29:45.240Z,11.80
2019-03-30T19:32:19.338Z,11.80
2019-03-30T19:34:50.791Z,11.70
2019-03-30T19:37:24.940Z,11.60
2019-03-30T19:39:56.414Z,11.50
2019-03-30T19:42:27.738Z,11.40
2019-03-30T19:44:59.789Z,11.40
2019-03-30T19:47:33.510Z,11.30
2019-03-30T19:50:07.690Z,11.20
2019-03-30T19:52:43.879Z,11.20
2019-03-30T19:55:17.993Z,11.10
2019-03-30T19:57:56.494Z,11.10
2019-03-30T20:00:31.033Z,11.10
2019-03-30T20:03:05.281Z,11.00
2019-03-30T20:05:58.025Z,10.90
2019-03-30T20:08:36.308Z,10.90
2019-03-30T20:11:09.844Z,11.00
2019-03-30T20:13:50.712Z,11.00
2019-03-30T20:16:28.361Z,11.00
2019-03-30T20:19:11.564Z,11.00
2019-03-30T20:21:34.743Z,10.90
2019-03-30T20:24:10.567Z,11.00
2019-03-30T20:26:43.320Z,11.00
2019-03-30T20:29:25.505Z,11.10
2019-03-30T20:31:57.183Z,11.00
2019-03-30T20:34:44.253Z,11.10
2019-03-30T20:37:18.600Z,11.10
2019-03-30T20:39:51.603Z,11.10
2019-03-30T20:42:22.985Z,11.10
2019-03-30T20:45:02.398Z,11.10
2019-03-30T20:47:38.399Z,11.10
2019-03-30T20:50:19.382Z,11.10
2019-03-30T20:52:51.979Z,11.00
2019-03-30T20:55:23.336Z,11.00
2019-03-30T20:57:56.384Z,10.90
2019-03-30T21:00:28.140Z,10.80
2019-03-30T21:02:59.596Z,10.70
2019-03-30T21:05:31.230Z,10.60
2019-03-30T21:08:02.645Z,10.60
2019-03-30T21:10:33.982Z,10.50
2019-03-30T21:13:05.602Z,10.50
2019-03-30T21:15:36.970Z,10.40
2019-03-30T21:18:08.222Z,10.40
2019-03-30T21:20:40.519Z,10.40
2019-03-30T21:23:11.839Z,10.30
2019-03-30T21:25:45.014Z,10.30
2019-03-30T21:28:16.466Z,10.20
2019-03-30T21:30:48.982Z,10.20
2019-03-30T21:33:20.392Z,10.10
2019-03-30T21:35:53.359Z,10.10
2019-03-30T21:38:24.732Z,10.10
2019-03-30T21:40:58.977Z,10.10
2019-03-30T21:43:30.348Z,10.00
2019-03-30T21:46:01.803Z,9.90
2019-03-30T21:48:36.082Z,9.90
2019-03-30T21:51:07.394Z,9.80
2019-03-30T21:53:38.788Z,9.70
2019-03-30T21:56:10.101Z,9.70
2019-03-30T21:58:44.186Z,9.60
2019-03-30T22:01:15.519Z,9.50
2019-03-30T22:03:46.903Z,9.50
2019-03-30T22:06:19.174Z,9.40
2019-03-30T22:08:52.799Z,9.30
2019-03-30T22:11:24.164Z,9.30
2019-03-30T22:13:56.629Z,9.20
2019-03-30T22:16:27.901Z,9.10
2019-03-30T22:18:59.378Z,9.10
2019-03-30T22:21:33.752Z,9.10
2019-03-30T22:24:05.091Z,9.00
2019-03-30T22:26:36.382Z,9.00
2019-03-30T22:29:07.746Z,9.00
2019-03-30T22:31:39.111Z,8.90
2019-03-30T22:34:10.529Z,8.90
2019-03-30T22:36:42.830Z,8.90
2019-03-30T22:39:14.265Z,8.90
2019-03-30T22:41:45.657Z,8.90
2019-03-30T22:44:16.975Z,8.90
2019-03-30T22:46:48.376Z,8.90
2019-03-30T22:49:19.689Z,8.90
2019-03-30T22:51:51.059Z,8.90
2019-03-30T22:54:22.333Z,8.80
2019-03-30T22:56:53.643Z,8.80
2019-03-30T22:59:26.159Z,8.80
2019-03-30T23:01:57.466Z,8.80
2019-03-30T23:04:28.710Z,8.80
2019-03-30T23:07:00.070Z,8.70
2019-03-30T23:09:32.577Z,8.70
2019-03-30T23:12:04.329Z,8.60
2019-03-30T23:14:35.754Z,8.60
2019-03-30T23:17:07.223Z,8.60
2019-03-30T23:19:38.577Z,8.60
2019-03-30T23:22:10.015Z,8.60
2019-03-30T23:24:42.250Z,8.60
2019-03-30T23:27:13.665Z,8.60
2019-03-30T23:29:44.985Z,8.60
2019-03-30T23:32:16.322Z,8.50
2019-03-30T23:34:48.676Z,8.50
2019-03-30T23:37:19.953Z,8.50
2019-03-30T23:39:51.290Z,8.50
2019-03-30T23:42:22.621Z,8.50
2019-03-30T23:44:55.102Z,8.50
2019-03-30T23:47:26.428Z,8.50
2019-03-30T23:49:57.803Z,8.50
2019-03-30T23:52:29.158Z,8.50
2019-03-30T23:55:00.415Z,8.50
2019-03-30T23:57:31.878Z,8.50
